Bridgeton, New Jersey
Current Conditions -  °F | °C
As of 12:54 AM on Thursday 29 Jan 2015 (Local Time) from KMIV Reporting Station
Clear Clear  
Wind Chill: 13°   Ceiling: Unl
Heat Index: 20°   Visibility: 10mi
Dew Point:   Wind: 5mph
Humidity: 52%   Direction: 290°WNW
Pressure: 30.29"   Gusts: NA
Location:  39.43°N, 75.23°W
Report Text: KMIV 290554Z AUTO 29004KT 10SM CLR M07/M15 A3029 RMK AO2 SLP255 T10671150 11022 21072 50004
Loading
Personal Weather Stations






























Interactive Weather Map New forecast layout! Learn more

10-Day Weather Forecast

Advertisements
Track Severe Weather on mobile